createdAt,value
2018-02-20T00:00:32.276Z,34.55
2018-02-20T00:03:00.324Z,47.83
2018-02-20T00:05:29.332Z,42.45
2018-02-20T00:07:57.381Z,43.10
2018-02-20T00:10:27.344Z,38.50
2018-02-20T00:12:56.324Z,43.85
2018-02-20T00:15:27.632Z,43.55
2018-02-20T00:17:55.708Z,46.55
2018-02-20T00:20:23.741Z,44.03
2018-02-20T00:22:51.792Z,45.88
2018-02-20T00:25:24.980Z,48.42
2018-02-20T00:27:57.617Z,45.67
2018-02-20T00:30:26.736Z,45.53
2018-02-20T00:32:55.804Z,47.45
2018-02-20T00:35:24.236Z,43.70
2018-02-20T00:37:52.244Z,42.25
2018-02-20T00:40:22.004Z,43.67
2018-02-20T00:42:52.100Z,44.13
2018-02-20T00:45:22.093Z,40.05
2018-02-20T00:47:50.175Z,37.90
2018-02-20T00:50:18.328Z,35.80
2018-02-20T00:52:53.368Z,35.08
2018-02-20T00:55:25.440Z,42.62
2018-02-20T00:57:55.288Z,40.08
2018-02-20T01:00:27.304Z,43.30
2018-02-20T01:02:59.788Z,36.13
2018-02-20T01:05:28.815Z,40.70
2018-02-20T01:08:01.496Z,37.92
2018-02-20T01:10:29.596Z,41.65
2018-02-20T01:12:57.648Z,37.25
2018-02-20T01:15:27.096Z,45.15
2018-02-20T01:18:03.604Z,43.45
2018-02-20T01:20:31.744Z,42.50
2018-02-20T01:22:59.760Z,37.42
2018-02-20T01:25:33.307Z,45.03
2018-02-20T01:28:05.384Z,41.72
2018-02-20T01:30:33.443Z,34.40
2018-02-20T01:33:04.744Z,36.80
2018-02-20T01:35:32.780Z,37.65
2018-02-20T01:38:00.819Z,42.10
2018-02-20T01:40:31.648Z,38.72
2018-02-20T01:43:00.720Z,38.35
2018-02-20T01:45:28.760Z,36.50
2018-02-20T01:48:02.137Z,41.90
2018-02-20T01:50:32.079Z,39.70
2018-02-20T01:53:01.155Z,38.97
2018-02-20T01:55:30.248Z,42.08
2018-02-20T01:58:01.772Z,38.85
2018-02-20T02:00:30.803Z,35.95
2018-02-20T02:03:05.160Z,40.78
2018-02-20T02:05:42.927Z,38.55
2018-02-20T02:08:11.760Z,34.92
2018-02-20T02:10:39.928Z,37.53
2018-02-20T02:13:13.351Z,40.00
2018-02-20T02:15:42.371Z,42.50
2018-02-20T02:18:15.151Z,37.13
2018-02-20T02:20:45.595Z,40.15
2018-02-20T02:23:16.407Z,37.88
2018-02-20T02:25:48.560Z,37.40
2018-02-20T02:28:17.539Z,40.38
2018-02-20T02:30:45.592Z,43.20
2018-02-20T02:33:27.219Z,55.10
2018-02-20T02:36:08.856Z,46.40
2018-02-20T02:38:37.915Z,42.28
2018-02-20T02:41:10.164Z,49.08
2018-02-20T02:43:41.009Z,49.38
2018-02-20T02:46:09.999Z,51.35
2018-02-20T02:48:42.175Z,50.75
2018-02-20T02:51:15.831Z,53.90
2018-02-20T02:53:45.511Z,56.80
2018-02-20T02:56:13.564Z,58.33
2018-02-20T02:58:47.621Z,61.42
2018-02-20T03:01:15.672Z,52.80
2018-02-20T03:03:43.739Z,60.50
2018-02-20T03:06:22.051Z,58.92
2018-02-20T03:08:58.847Z,65.18
2018-02-20T03:11:31.559Z,60.88
2018-02-20T03:14:01.565Z,57.67
2018-02-20T03:16:31.583Z,56.58
2018-02-20T03:19:00.699Z,56.75
2018-02-20T03:21:33.154Z,62.65
2018-02-20T03:24:05.915Z,66.30
2018-02-20T03:26:39.775Z,62.78
2018-02-20T03:29:19.151Z,58.35
2018-02-20T03:31:54.891Z,70.35
2018-02-20T03:34:22.998Z,71.97
2018-02-20T03:36:56.803Z,58.50
2018-02-20T03:39:28.890Z,61.05
2018-02-20T03:42:07.259Z,64.80
2018-02-20T03:44:35.290Z,61.40
2018-02-20T03:47:14.820Z,62.72
2018-02-20T03:49:43.927Z,58.45
2018-02-20T03:52:20.063Z,55.67
2018-02-20T03:54:49.147Z,56.65
2018-02-20T03:57:21.741Z,55.28
2018-02-20T03:59:50.673Z,60.30
2018-02-20T04:02:24.118Z,55.67
2018-02-20T04:05:03.675Z,58.65
2018-02-20T04:07:32.146Z,60.83
2018-02-20T04:10:00.202Z,58.03
2018-02-20T04:12:29.330Z,57.30
2018-02-20T04:14:58.355Z,60.92
2018-02-20T04:17:26.447Z,60.72
2018-02-20T04:19:56.367Z,55.67
2018-02-20T04:22:30.086Z,57.28
2018-02-20T04:25:03.719Z,60.85
2018-02-20T04:27:39.598Z,62.50
2018-02-20T04:30:08.431Z,54.60
2018-02-20T04:32:36.458Z,62.28
2018-02-20T04:35:05.475Z,59.60
2018-02-20T04:37:45.547Z,61.28
2018-02-20T04:40:20.447Z,55.33
2018-02-20T04:42:54.602Z,60.03
2018-02-20T04:45:23.635Z,70.28
2018-02-20T04:47:57.639Z,64.93
2018-02-20T04:50:26.867Z,56.63
2018-02-20T04:52:56.655Z,65.32
2018-02-20T04:55:26.486Z,59.53
2018-02-20T04:57:55.610Z,55.08
2018-02-20T05:00:24.658Z,62.60
2018-02-20T05:02:53.443Z,62.17
2018-02-20T05:05:37.491Z,60.75
2018-02-20T05:08:13.582Z,57.97
2018-02-20T05:10:41.622Z,63.63
2018-02-20T05:13:14.783Z,63.15
2018-02-20T05:15:42.818Z,56.15
2018-02-20T05:18:10.859Z,60.63
2018-02-20T05:20:42.171Z,64.15
2018-02-20T05:23:13.922Z,68.20
2018-02-20T05:25:43.951Z,61.37
2018-02-20T05:28:14.666Z,61.50
2018-02-20T05:30:44.866Z,63.30
2018-02-20T05:33:16.455Z,68.37
2018-02-20T05:35:45.274Z,70.30
2018-02-20T05:38:19.755Z,62.05
2018-02-20T05:40:52.958Z,63.10
2018-02-20T05:43:43.598Z,66.25
2018-02-20T05:49:07.442Z,59.58
2018-02-20T05:51:35.642Z,69.97
2018-02-20T05:54:06.339Z,59.22
2018-02-20T05:56:34.370Z,68.53
2018-02-20T05:59:06.159Z,73.40
2018-02-20T06:04:30.874Z,63.40
2018-02-20T06:07:09.055Z,65.95
2018-02-20T06:09:44.702Z,67.50
2018-02-20T06:15:23.314Z,67.20
2018-02-20T06:18:06.275Z,68.28
2018-02-20T06:20:41.295Z,72.03
2018-02-20T06:23:29.514Z,61.45
2018-02-20T06:26:08.991Z,64.82
2018-02-20T06:28:38.914Z,71.80
2018-02-20T06:31:21.374Z,64.40
2018-02-20T06:33:49.498Z,69.15
2018-02-20T06:36:35.741Z,73.93
2018-02-20T06:39:15.790Z,69.80
2018-02-20T06:41:56.682Z,63.65
2018-02-20T06:44:30.426Z,66.75
2018-02-20T06:50:18.023Z,64.22
2018-02-20T06:52:46.034Z,62.75
2018-02-20T06:55:33.826Z,63.78
2018-02-20T07:06:47.875Z,59.78
2018-02-20T07:12:15.226Z,61.58
2018-02-20T07:14:47.210Z,65.12
2018-02-20T07:17:31.716Z,57.08
2018-02-20T07:20:15.252Z,59.05
2018-02-20T07:22:43.306Z,57.65
2018-02-20T07:25:14.102Z,62.75
2018-02-20T07:27:46.378Z,53.38
2018-02-20T07:30:14.414Z,52.83
2018-02-20T07:32:42.454Z,61.53
2018-02-20T07:35:11.394Z,61.58
2018-02-20T07:37:44.938Z,63.03
2018-02-20T07:40:26.222Z,56.50
2018-02-20T07:42:54.245Z,58.70
2018-02-20T07:45:28.050Z,57.22
2018-02-20T07:48:03.762Z,60.22
2018-02-20T07:50:31.802Z,59.63
2018-02-20T07:53:03.654Z,64.30
2018-02-20T07:55:31.690Z,60.75
2018-02-20T07:58:13.845Z,61.47
2018-02-20T08:00:44.518Z,57.85
2018-02-20T08:03:16.297Z,57.35
2018-02-20T08:05:44.329Z,53.72
2018-02-20T08:08:12.354Z,59.38
2018-02-20T08:10:42.045Z,60.65
2018-02-20T08:13:10.069Z,55.28
2018-02-20T08:15:38.093Z,53.85
2018-02-20T08:18:06.888Z,56.13
2018-02-20T08:20:45.961Z,55.25
2018-02-20T08:23:30.697Z,55.67
2018-02-20T08:26:01.534Z,61.47
2018-02-20T08:28:30.321Z,56.15
2018-02-20T08:30:58.342Z,56.17
2018-02-20T08:33:29.599Z,58.10
2018-02-20T08:35:58.513Z,54.88
2018-02-20T08:38:30.933Z,58.10
2018-02-20T08:41:02.662Z,54.42
2018-02-20T08:43:30.694Z,50.75
2018-02-20T08:46:04.446Z,55.05
2018-02-20T08:48:37.334Z,55.88
2018-02-20T08:51:07.261Z,50.85
2018-02-20T08:53:46.310Z,61.17
2018-02-20T08:56:15.302Z,55.65
2018-02-20T08:58:44.237Z,53.10
2018-02-20T09:01:30.527Z,59.70
2018-02-20T09:03:58.565Z,57.62
2018-02-20T09:06:33.086Z,59.08
2018-02-20T09:09:27.938Z,51.00
2018-02-20T09:11:58.642Z,50.72
2018-02-20T09:14:28.322Z,53.35
2018-02-20T09:17:00.010Z,54.80
2018-02-20T09:19:28.809Z,56.50
2018-02-20T09:22:01.658Z,49.47
2018-02-20T09:24:30.578Z,53.38
2018-02-20T09:27:08.138Z,53.20
2018-02-20T09:29:51.817Z,57.78
2018-02-20T09:32:20.740Z,52.60
2018-02-20T09:35:00.673Z,59.38
2018-02-20T09:37:30.609Z,53.70
2018-02-20T09:40:07.221Z,53.38
2018-02-20T09:42:36.025Z,58.40
2018-02-20T09:45:07.488Z,52.85
2018-02-20T09:47:48.081Z,51.80
2018-02-20T09:50:39.461Z,53.63
2018-02-20T09:53:12.933Z,47.33
2018-02-20T09:56:02.852Z,48.13
2018-02-20T09:58:30.881Z,48.97
2018-02-20T10:01:01.561Z,49.47
2018-02-20T10:03:30.489Z,51.97
2018-02-20T10:06:00.409Z,50.40
2018-02-20T10:08:28.438Z,54.17
2018-02-20T10:13:51.037Z,54.90
2018-02-20T10:16:29.369Z,53.10
2018-02-20T10:19:08.337Z,55.85
2018-02-20T10:21:41.277Z,51.80
2018-02-20T10:24:24.704Z,47.92
2018-02-20T10:26:55.389Z,53.22
2018-02-20T10:29:29.737Z,52.97
2018-02-20T10:31:57.764Z,49.55
2018-02-20T10:34:27.689Z,49.50
2018-02-20T10:36:55.712Z,52.90
2018-02-20T10:39:29.436Z,46.53
2018-02-20T10:42:07.149Z,48.87
2018-02-20T10:44:39.273Z,49.53
2018-02-20T10:47:13.797Z,51.13
2018-02-20T10:49:51.013Z,47.50
2018-02-20T10:52:23.209Z,53.15
2018-02-20T10:54:51.237Z,50.08
2018-02-20T10:57:22.321Z,50.05
2018-02-20T10:59:53.365Z,55.03
2018-02-20T11:02:22.289Z,56.63
2018-02-20T11:04:52.061Z,50.78
2018-02-20T11:07:30.540Z,50.03
2018-02-20T11:10:06.401Z,51.33
2018-02-20T11:12:44.337Z,59.20
2018-02-20T11:15:12.357Z,49.78
2018-02-20T11:18:00.169Z,47.88
2018-02-20T11:20:28.965Z,49.97
2018-02-20T11:22:57.753Z,43.87
2018-02-20T11:25:33.949Z,54.88
2018-02-20T11:28:07.789Z,49.08
2018-02-20T11:30:38.956Z,53.10
2018-02-20T11:33:08.741Z,53.38
2018-02-20T11:35:36.770Z,49.30
2018-02-20T11:38:06.720Z,49.88
2018-02-20T11:40:35.713Z,45.15
2018-02-20T11:43:03.741Z,56.92
2018-02-20T11:45:31.773Z,51.22
2018-02-20T11:47:59.792Z,46.97
2018-02-20T11:50:28.821Z,49.95
2018-02-20T11:52:56.845Z,48.97
2018-02-20T11:55:24.873Z,44.25
2018-02-20T11:57:52.889Z,47.65
2018-02-20T12:00:22.813Z,45.08
2018-02-20T12:02:51.880Z,41.88
2018-02-20T12:05:20.661Z,39.38
2018-02-20T12:07:48.709Z,40.15
2018-02-20T12:10:16.749Z,41.63
2018-02-20T12:12:45.761Z,41.92
2018-02-20T12:15:13.794Z,49.58
2018-02-20T12:17:41.816Z,42.55
2018-02-20T12:20:09.872Z,41.17
2018-02-20T12:22:38.852Z,40.75
2018-02-20T12:25:06.877Z,45.25
2018-02-20T12:27:35.832Z,35.67
2018-02-20T12:30:03.896Z,37.60
2018-02-20T12:32:32.908Z,42.88
2018-02-20T12:35:00.937Z,42.03
2018-02-20T12:37:28.985Z,35.63
2018-02-20T12:39:58.033Z,43.63
2018-02-20T12:42:26.070Z,42.65
2018-02-20T12:44:54.108Z,49.97
2018-02-20T12:47:23.049Z,42.30
2018-02-20T12:49:51.094Z,41.10
2018-02-20T12:52:20.157Z,41.37
2018-02-20T12:54:48.180Z,40.35
2018-02-20T12:57:17.200Z,46.63
2018-02-20T12:59:46.989Z,42.30
2018-02-20T13:02:25.097Z,41.03
2018-02-20T13:04:54.093Z,43.10
2018-02-20T13:07:24.148Z,39.83
2018-02-20T13:09:53.092Z,42.00
2018-02-20T13:12:27.154Z,37.30
2018-02-20T13:14:58.116Z,45.92
2018-02-20T13:17:29.905Z,45.55
2018-02-20T13:20:04.296Z,42.00
2018-02-20T13:22:32.340Z,38.35
2018-02-20T13:25:03.445Z,36.58
2018-02-20T13:27:39.789Z,38.20
2018-02-20T13:30:12.260Z,39.90
2018-02-20T13:32:44.337Z,44.40
2018-02-20T13:35:12.389Z,42.55
2018-02-20T13:37:41.408Z,34.28
2018-02-20T13:40:12.753Z,39.63
2018-02-20T13:42:41.756Z,37.22
2018-02-20T13:45:10.565Z,34.45
2018-02-20T13:47:40.561Z,34.78
2018-02-20T13:50:15.133Z,40.17
2018-02-20T13:52:46.224Z,36.50
2018-02-20T13:55:20.033Z,39.30
2018-02-20T13:57:53.980Z,31.27
2018-02-20T14:00:28.607Z,37.65
2018-02-20T14:03:00.914Z,37.65
2018-02-20T14:05:29.861Z,40.15
2018-02-20T14:07:58.808Z,34.67
2018-02-20T14:10:29.512Z,34.33
2018-02-20T14:12:58.509Z,35.92
2018-02-20T14:15:26.490Z,34.60
2018-02-20T14:17:54.529Z,35.35
2018-02-20T14:20:24.469Z,38.60
2018-02-20T14:22:53.493Z,33.50
2018-02-20T14:25:22.332Z,38.58
2018-02-20T14:27:50.337Z,35.00
2018-02-20T14:30:18.396Z,35.13
2018-02-20T14:32:48.424Z,26.73
2018-02-20T14:35:18.456Z,35.67
2018-02-20T14:37:49.169Z,30.37
2018-02-20T14:40:22.992Z,27.35
2018-02-20T14:42:51.956Z,33.95
2018-02-20T14:45:23.313Z,35.83
2018-02-20T14:48:08.396Z,29.50
2018-02-20T14:50:38.200Z,30.05
2018-02-20T14:53:10.573Z,29.42
2018-02-20T14:55:39.565Z,28.83
2018-02-20T14:58:10.289Z,28.67
2018-02-20T15:00:40.308Z,30.17
2018-02-20T15:03:13.697Z,27.27
2018-02-20T15:05:46.612Z,22.37
2018-02-20T15:08:14.656Z,28.12
2018-02-20T15:10:42.677Z,33.38
2018-02-20T15:13:10.700Z,29.33
2018-02-20T15:15:45.108Z,24.65
2018-02-20T15:18:25.572Z,27.80
2018-02-20T15:20:57.729Z,23.92
2018-02-20T15:23:26.656Z,25.45
2018-02-20T15:25:59.388Z,24.08
2018-02-20T15:28:28.317Z,30.45
2018-02-20T15:31:03.038Z,22.98
2018-02-20T15:33:35.030Z,24.08
2018-02-20T15:36:04.989Z,24.92
2018-02-20T15:41:28.692Z,25.35
2018-02-20T15:43:59.635Z,38.58
2018-02-20T15:46:28.606Z,41.47
2018-02-20T15:48:59.997Z,42.47
2018-02-20T15:51:28.796Z,38.50
2018-02-20T15:53:58.692Z,45.28
2018-02-20T15:56:28.385Z,41.13
2018-02-20T15:58:56.412Z,47.55
2018-02-20T16:01:28.057Z,44.42
2018-02-20T16:03:56.076Z,42.35
2018-02-20T16:06:24.115Z,38.83
2018-02-20T16:11:45.837Z,43.45
2018-02-20T16:14:16.612Z,44.00
2018-02-20T16:17:10.145Z,42.45
2018-02-20T16:19:43.916Z,48.05
2018-02-20T16:22:19.396Z,51.08
2018-02-20T16:24:53.521Z,52.47
2018-02-20T16:27:29.476Z,49.10
2018-02-20T16:29:58.392Z,45.63
2018-02-20T16:32:28.332Z,50.47
2018-02-20T16:34:58.108Z,44.67
2018-02-20T16:37:36.399Z,38.28
2018-02-20T16:40:04.436Z,46.15
2018-02-20T16:42:42.900Z,49.65
2018-02-20T16:45:27.493Z,47.88
2018-02-20T16:47:57.424Z,45.65
2018-02-20T16:50:28.548Z,46.47
2018-02-20T16:53:04.016Z,42.42
2018-02-20T16:55:33.988Z,42.67
2018-02-20T16:58:14.552Z,50.10
2018-02-20T17:00:43.532Z,45.42
2018-02-20T17:03:16.488Z,43.50
2018-02-20T17:05:44.558Z,43.75
2018-02-20T17:08:15.196Z,41.53
2018-02-20T17:13:45.696Z,43.35
2018-02-20T17:16:14.492Z,48.22
2018-02-20T17:18:50.687Z,48.67
2018-02-20T17:21:28.568Z,53.63
2018-02-20T17:23:56.579Z,47.70
2018-02-20T17:26:24.628Z,45.80
2018-02-20T17:28:59.964Z,53.03
2018-02-20T17:31:28.008Z,51.03
2018-02-20T17:33:59.719Z,52.00
2018-02-20T17:36:27.791Z,51.63
2018-02-20T17:38:59.548Z,58.67
2018-02-20T17:41:28.596Z,50.33
2018-02-20T17:44:02.044Z,52.88
2018-02-20T17:46:33.923Z,61.45
2018-02-20T17:49:02.737Z,54.47
2018-02-20T17:51:30.787Z,54.00
2018-02-20T17:54:04.023Z,56.58
2018-02-20T17:56:38.648Z,45.38
2018-02-20T17:59:16.343Z,58.87
2018-02-20T18:01:48.632Z,52.00
2018-02-20T18:04:17.555Z,55.05
2018-02-20T18:06:51.355Z,51.10
2018-02-20T18:09:25.143Z,58.05
2018-02-20T18:11:53.175Z,51.33
2018-02-20T18:14:21.221Z,54.60
2018-02-20T18:16:50.147Z,52.20
2018-02-20T18:19:19.095Z,62.33
2018-02-20T18:21:49.819Z,59.38
2018-02-20T18:24:22.895Z,63.95
2018-02-20T18:26:51.843Z,57.28
2018-02-20T18:29:19.871Z,64.95
2018-02-20T18:31:48.675Z,59.25
2018-02-20T18:34:17.627Z,60.38
2018-02-20T18:36:46.544Z,55.70
2018-02-20T18:39:16.559Z,62.00
2018-02-20T18:41:45.363Z,58.10
2018-02-20T18:44:21.875Z,58.70
2018-02-20T18:47:06.677Z,55.33
2018-02-20T18:49:38.931Z,57.67
2018-02-20T18:52:07.739Z,60.08
2018-02-20T18:54:37.424Z,56.92
2018-02-20T18:57:10.311Z,63.15
2018-02-20T18:59:40.226Z,58.80
2018-02-20T19:02:26.687Z,58.47
2018-02-20T19:05:02.780Z,64.65
2018-02-20T19:07:30.827Z,72.47
2018-02-20T19:10:02.160Z,60.15
2018-02-20T19:12:32.779Z,60.83
2018-02-20T19:15:00.803Z,69.75
2018-02-20T19:17:29.603Z,62.90
2018-02-20T19:20:08.390Z,67.93
2018-02-20T19:22:40.513Z,69.20
2018-02-20T19:25:08.531Z,64.43
2018-02-20T19:27:37.570Z,67.12
2018-02-20T19:30:08.080Z,63.13
2018-02-20T19:32:43.311Z,74.47
2018-02-20T19:35:23.239Z,66.80
2018-02-20T19:37:55.302Z,75.28
2018-02-20T19:40:23.343Z,60.30
2018-02-20T19:43:13.027Z,70.18
2018-02-20T19:45:41.120Z,61.88
2018-02-20T19:48:10.587Z,71.65
2018-02-20T19:50:40.351Z,71.85
2018-02-20T19:53:09.190Z,74.70
2018-02-20T19:55:41.915Z,72.25
2018-02-20T19:58:15.766Z,68.85
2018-02-20T20:00:45.739Z,64.68
2018-02-20T20:03:19.568Z,70.57
2018-02-20T20:05:49.296Z,65.68
2018-02-20T20:08:17.815Z,65.37
2018-02-20T20:10:45.843Z,68.00
2018-02-20T20:13:14.815Z,72.65
2018-02-20T20:15:48.492Z,70.07
2018-02-20T20:18:27.066Z,72.07
2018-02-20T20:20:58.266Z,71.97
2018-02-20T20:23:27.439Z,76.50
2018-02-20T20:25:55.479Z,77.43
2018-02-20T20:28:23.507Z,76.32
2018-02-20T20:30:55.655Z,74.62
2018-02-20T20:33:23.687Z,69.37
2018-02-20T20:35:51.723Z,80.03
2018-02-20T20:38:19.775Z,73.22
2018-02-20T20:40:48.810Z,80.82
2018-02-20T20:43:21.607Z,77.10
2018-02-20T20:45:50.751Z,70.15
2018-02-20T20:48:18.781Z,80.62
2018-02-20T20:50:47.887Z,101.20
2018-02-20T20:53:16.879Z,80.50
2018-02-20T20:55:45.888Z,77.45
2018-02-20T20:58:17.003Z,81.82
2018-02-20T21:00:49.558Z,79.80
2018-02-20T21:03:25.747Z,79.80
2018-02-20T21:05:56.591Z,75.78
2018-02-20T21:08:26.650Z,85.00
2018-02-20T21:11:00.279Z,86.07
2018-02-20T21:13:33.063Z,79.60
2018-02-20T21:16:02.135Z,80.95
2018-02-20T21:18:35.887Z,87.43
2018-02-20T21:21:03.899Z,74.60
2018-02-20T21:23:33.763Z,85.65
2018-02-20T21:26:03.714Z,78.05
2018-02-20T21:28:33.451Z,85.53
2018-02-20T21:31:01.511Z,93.35
2018-02-20T21:33:30.480Z,83.50
2018-02-20T21:35:59.495Z,87.53
2018-02-20T21:38:28.302Z,89.80
2018-02-20T21:40:58.306Z,90.60
2018-02-20T21:43:26.535Z,91.35
2018-02-20T21:45:57.818Z,104.45
2018-02-20T21:48:27.550Z,99.30
2018-02-20T21:51:00.119Z,97.60
2018-02-20T21:53:29.098Z,112.70
2018-02-20T21:55:59.035Z,117.22
2018-02-20T21:58:28.094Z,102.45
2018-02-20T22:01:03.783Z,101.90
2018-02-20T22:03:36.334Z,98.72
2018-02-20T22:06:10.311Z,98.37
2018-02-20T22:08:41.999Z,93.40
2018-02-20T22:11:13.735Z,97.35
2018-02-20T22:13:42.290Z,104.90
2018-02-20T22:16:11.807Z,99.03
2018-02-20T22:18:41.858Z,99.10
2018-02-20T22:21:10.195Z,112.47
2018-02-20T22:23:47.062Z,108.25
2018-02-20T22:26:19.767Z,105.35
2018-02-20T22:28:53.694Z,106.43
2018-02-20T22:31:23.802Z,103.80
2018-02-20T22:33:54.998Z,110.53
2018-02-20T22:36:24.052Z,101.80
2018-02-20T22:41:27.505Z,99.82
2018-02-20T22:43:59.054Z,97.40
2018-02-20T22:46:28.722Z,100.53
2018-02-20T22:48:56.970Z,95.30
2018-02-20T22:51:25.210Z,109.80
2018-02-20T22:53:57.962Z,108.65
2018-02-20T22:56:39.630Z,94.35
2018-02-20T22:59:17.755Z,115.22
2018-02-20T23:13:05.882Z,106.55
2018-02-20T23:15:33.962Z,111.20
2018-02-20T23:18:02.022Z,105.55
2018-02-20T23:20:33.710Z,114.12
2018-02-20T23:23:25.230Z,120.45
2018-02-20T23:25:53.322Z,110.70
2018-02-20T23:28:26.734Z,112.10
2018-02-20T23:30:57.571Z,107.20
2018-02-20T23:33:26.414Z,106.40
2018-02-20T23:35:54.690Z,107.05
2018-02-20T23:38:25.882Z,124.20
2018-02-20T23:41:00.618Z,101.15
2018-02-20T23:43:32.446Z,107.28
2018-02-20T23:46:02.731Z,115.55
2018-02-20T23:48:33.055Z,116.60
2018-02-20T23:51:08.599Z,124.62
2018-02-20T23:53:37.681Z,124.55
2018-02-20T23:56:05.730Z,114.40
2018-02-20T23:58:34.739Z,135.02
